createdAt,value
2022-09-24T00:04:20.133Z,9.20
2022-09-24T00:09:19.261Z,9.70
2022-09-24T00:14:19.216Z,8.30
2022-09-24T00:19:19.150Z,9.90
2022-09-24T00:24:19.110Z,10.70
2022-09-24T00:29:19.026Z,9.70
2022-09-24T00:34:18.920Z,9.50
2022-09-24T00:39:18.868Z,10.20
2022-09-24T00:44:18.819Z,9.40
2022-09-24T00:49:18.743Z,9.70
2022-09-24T00:54:18.723Z,9.50
2022-09-24T00:59:18.756Z,9.10
2022-09-24T01:04:18.519Z,8.70
2022-09-24T01:09:18.465Z,10.30
2022-09-24T01:14:18.391Z,9.60
2022-09-24T01:19:18.347Z,9.80
2022-09-24T01:24:18.284Z,8.60
2022-09-24T01:29:18.195Z,9.50
2022-09-24T01:34:18.140Z,9.60
2022-09-24T01:39:18.145Z,9.80
2022-09-24T01:44:17.981Z,9.70
2022-09-24T01:49:17.952Z,10.60
2022-09-24T01:54:17.856Z,8.90
2022-09-24T01:59:17.800Z,8.40
2022-09-24T02:04:17.878Z,9.30
2022-09-24T02:09:17.650Z,8.30
2022-09-24T02:14:17.621Z,9.60
2022-09-24T02:19:17.509Z,8.70
2022-09-24T02:24:17.441Z,8.10
2022-09-24T02:29:17.376Z,8.90
2022-09-24T02:34:17.315Z,10.00
2022-09-24T02:39:17.248Z,10.20
2022-09-24T02:44:17.202Z,9.60
2022-09-24T02:49:17.117Z,10.90
2022-09-24T02:54:17.061Z,9.60
2022-09-24T02:59:16.976Z,8.80
2022-09-24T03:04:16.943Z,11.50
2022-09-24T03:09:17.044Z,9.60
2022-09-24T03:14:16.775Z,9.30
2022-09-24T03:19:16.780Z,8.20
2022-09-24T03:24:16.673Z,8.40
2022-09-24T03:29:16.616Z,8.20
2022-09-24T03:34:16.542Z,8.40
2022-09-24T03:39:16.494Z,9.90
2022-09-24T03:44:16.413Z,10.20
2022-09-24T03:49:16.343Z,8.10
2022-09-24T03:54:16.390Z,10.00
2022-09-24T03:59:16.250Z,8.00
2022-09-24T04:04:16.148Z,8.30
2022-09-24T04:09:16.149Z,10.30
2022-09-24T04:14:16.139Z,8.40
2022-09-24T04:19:15.965Z,8.20
2022-09-24T04:24:15.916Z,11.00
2022-09-24T04:29:15.864Z,10.10
2022-09-24T04:34:15.768Z,10.20
2022-09-24T04:39:15.700Z,12.00
2022-09-24T04:44:15.631Z,10.90
2022-09-24T04:49:15.572Z,11.30
2022-09-24T04:54:15.575Z,10.20
2022-09-24T04:59:15.448Z,11.40
2022-09-24T05:04:15.410Z,12.80
2022-09-24T05:09:15.429Z,11.80
2022-09-24T05:14:15.240Z,10.10
2022-09-24T05:19:15.217Z,9.70
2022-09-24T05:24:15.146Z,10.30
2022-09-24T05:29:15.064Z,8.90
2022-09-24T05:34:15.005Z,8.00
2022-09-24T05:39:15.205Z,9.40
2022-09-24T05:44:14.834Z,6.80
2022-09-24T05:49:14.792Z,9.90
2022-09-24T05:54:14.791Z,8.80
2022-09-24T05:59:14.659Z,9.30
2022-09-24T06:04:14.594Z,8.30
2022-09-24T06:09:14.526Z,7.30
2022-09-24T06:14:14.452Z,9.10
2022-09-24T06:19:14.423Z,7.90
2022-09-24T06:24:14.504Z,8.50
2022-09-24T06:29:14.362Z,8.50
2022-09-24T06:34:14.197Z,8.00
2022-09-24T06:39:14.126Z,9.00
2022-09-24T06:44:14.053Z,9.10
2022-09-24T06:49:14.015Z,8.70
2022-09-24T06:54:13.918Z,9.10
2022-09-24T06:59:14.034Z,7.20
2022-09-24T07:04:13.907Z,7.30
2022-09-24T07:09:13.776Z,7.90
2022-09-24T07:14:13.708Z,8.00
2022-09-24T07:19:13.662Z,8.40
2022-09-24T07:24:13.554Z,6.50
2022-09-24T07:29:13.481Z,7.60
2022-09-24T07:34:13.409Z,6.20
2022-09-24T07:39:13.341Z,5.80
2022-09-24T07:44:13.326Z,6.60
2022-09-24T07:49:13.396Z,6.90
2022-09-24T07:54:17.088Z,6.50
2022-09-24T07:59:13.180Z,6.40
2022-09-24T08:04:13.217Z,6.30
2022-09-24T08:09:13.014Z,6.90
2022-09-24T08:14:13.087Z,6.20
2022-09-24T08:19:12.872Z,6.00
2022-09-24T08:24:12.959Z,6.90
2022-09-24T08:29:12.922Z,5.50
2022-09-24T08:34:12.710Z,6.80
2022-09-24T08:39:12.637Z,7.40
2022-09-24T08:44:12.551Z,6.40
2022-09-24T08:49:12.437Z,5.80
2022-09-24T08:54:12.425Z,6.60
2022-09-24T08:59:12.413Z,6.40
2022-09-24T09:04:12.356Z,7.10
2022-09-24T09:09:12.288Z,7.30
2022-09-24T09:14:12.148Z,5.90
2022-09-24T09:19:12.105Z,7.20
2022-09-24T09:24:12.032Z,5.40
2022-09-24T09:29:11.957Z,5.70
2022-09-24T09:34:12.136Z,5.30
2022-09-24T09:39:11.917Z,5.50
2022-09-24T09:44:11.759Z,5.60
2022-09-24T09:49:11.650Z,5.90
2022-09-24T09:54:11.636Z,5.40
2022-09-24T09:59:11.533Z,5.00
2022-09-24T10:04:11.739Z,6.70
2022-09-24T10:09:11.384Z,5.20
2022-09-24T10:14:11.332Z,5.20
2022-09-24T10:19:11.244Z,5.20
2022-09-24T10:24:11.207Z,4.90
2022-09-24T10:29:11.107Z,5.60
2022-09-24T10:34:11.167Z,4.60
2022-09-24T10:39:11.011Z,5.50
2022-09-24T10:44:10.926Z,5.20
2022-09-24T10:49:10.898Z,4.60
2022-09-24T10:54:10.800Z,12.10
2022-09-24T10:59:10.760Z,7.20
2022-09-24T11:04:10.808Z,4.30
2022-09-24T11:09:10.638Z,4.30
2022-09-24T11:14:10.567Z,4.10
2022-09-24T11:19:10.450Z,4.00
2022-09-24T11:24:10.388Z,3.40
2022-09-24T11:29:10.329Z,3.60
2022-09-24T11:34:10.335Z,3.60
2022-09-24T11:39:10.197Z,3.90
2022-09-24T11:44:10.158Z,4.10
2022-09-24T11:49:10.087Z,3.40
2022-09-24T11:54:10.093Z,3.50
2022-09-24T11:59:10.011Z,5.00
2022-09-24T12:04:09.938Z,4.50
2022-09-24T12:09:09.821Z,5.00
2022-09-24T12:14:09.859Z,4.70
2022-09-24T12:19:09.678Z,4.70
2022-09-24T12:24:09.636Z,3.40
2022-09-24T12:29:09.575Z,5.10
2022-09-24T12:34:09.541Z,3.30
2022-09-24T12:39:09.413Z,4.40
2022-09-24T12:44:09.391Z,4.10
2022-09-24T12:49:09.337Z,4.00
2022-09-24T12:54:09.366Z,4.30
2022-09-24T12:59:09.174Z,3.00
2022-09-24T13:04:09.144Z,5.10
2022-09-24T13:09:09.050Z,3.70
2022-09-24T13:14:09.049Z,4.20
2022-09-24T13:19:08.898Z,4.60
2022-09-24T13:24:08.911Z,4.20
2022-09-24T13:29:08.801Z,4.00
2022-09-24T13:34:08.755Z,4.10
2022-09-24T13:39:08.687Z,3.90
2022-09-24T13:44:08.573Z,3.30
2022-09-24T13:49:08.536Z,3.80
2022-09-24T13:54:08.615Z,4.30
2022-09-24T13:59:08.521Z,2.80
2022-09-24T14:04:08.314Z,3.80
2022-09-24T14:09:08.354Z,4.40
2022-09-24T14:14:08.206Z,3.60
2022-09-24T14:19:08.259Z,3.60
2022-09-24T14:24:08.079Z,3.80
2022-09-24T14:29:08.050Z,3.50
2022-09-24T14:34:07.949Z,3.20
2022-09-24T14:39:07.924Z,4.50
2022-09-24T14:44:07.809Z,4.30
2022-09-24T14:49:07.787Z,3.20
2022-09-24T14:54:07.661Z,3.80
2022-09-24T14:59:07.779Z,3.80
2022-09-24T15:04:07.734Z,3.40
2022-09-24T15:09:07.577Z,3.20
2022-09-24T15:14:07.492Z,3.30
2022-09-24T15:19:07.353Z,3.60
2022-09-24T15:24:07.283Z,4.10
2022-09-24T15:29:07.303Z,4.50
2022-09-24T15:34:07.156Z,4.20
2022-09-24T15:39:07.074Z,4.60
2022-09-24T15:44:07.063Z,3.90
2022-09-24T15:49:06.970Z,5.10
2022-09-24T15:54:06.889Z,6.10
2022-09-24T15:59:06.835Z,5.70
2022-09-24T16:04:07.046Z,4.80
2022-09-24T16:09:06.783Z,6.20
2022-09-24T16:14:06.611Z,6.60
2022-09-24T16:19:06.539Z,5.90
2022-09-24T16:24:06.499Z,6.70
2022-09-24T16:29:06.504Z,6.80
2022-09-24T16:34:06.429Z,6.10
2022-09-24T16:39:06.292Z,7.90
2022-09-24T16:44:06.241Z,8.10
2022-09-24T16:49:06.234Z,7.10
2022-09-24T16:54:06.125Z,9.00
2022-09-24T16:59:06.085Z,10.60
2022-09-24T17:04:06.143Z,10.10
2022-09-24T17:09:06.167Z,10.10
2022-09-24T17:14:05.861Z,10.90
2022-09-24T17:19:05.782Z,9.50
2022-09-24T17:24:05.804Z,8.80
2022-09-24T17:29:05.705Z,12.00
2022-09-24T17:34:05.602Z,11.20
2022-09-24T17:39:05.710Z,11.90
2022-09-24T17:44:05.478Z,10.70
2022-09-24T17:49:05.430Z,12.10
2022-09-24T17:54:06.214Z,13.40
2022-09-24T17:59:05.310Z,14.20
2022-09-24T18:04:05.177Z,13.60
2022-09-24T18:09:05.287Z,12.90
2022-09-24T18:14:05.307Z,12.80
2022-09-24T18:19:05.121Z,14.90
2022-09-24T18:24:04.972Z,14.50
2022-09-24T18:29:04.881Z,14.30
2022-09-24T18:34:04.857Z,14.20
2022-09-24T18:39:04.907Z,14.80
2022-09-24T18:44:04.696Z,13.80
2022-09-24T18:49:04.617Z,16.10
2022-09-24T18:54:04.641Z,14.70
2022-09-24T18:59:09.168Z,15.90
2022-09-24T19:04:05.397Z,15.60
2022-09-24T19:09:04.426Z,16.40
2022-09-24T19:14:04.432Z,16.80
2022-09-24T19:19:04.276Z,18.80
2022-09-24T19:24:04.206Z,17.40
2022-09-24T19:29:04.068Z,17.30
2022-09-24T19:34:04.052Z,17.90
2022-09-24T19:39:03.932Z,19.20
2022-09-24T19:44:08.450Z,19.90
2022-09-24T19:49:04.822Z,18.40
2022-09-24T19:54:03.853Z,19.40
2022-09-24T19:59:03.695Z,20.80
2022-09-24T20:04:03.691Z,18.60
2022-09-24T20:09:03.530Z,19.00
2022-09-24T20:14:03.550Z,19.70
2022-09-24T20:19:03.399Z,19.70
2022-09-24T20:24:03.641Z,19.80
2022-09-24T20:29:03.260Z,19.20
2022-09-24T20:34:03.277Z,17.60
2022-09-24T20:39:03.241Z,16.90
2022-09-24T20:44:03.212Z,16.30
2022-09-24T20:49:03.000Z,16.80
2022-09-24T20:54:02.935Z,14.70
2022-09-24T20:59:02.873Z,16.30
2022-09-24T21:04:02.885Z,15.80
2022-09-24T21:09:02.723Z,17.10
2022-09-24T21:14:02.784Z,16.90
2022-09-24T21:19:02.595Z,16.20
2022-09-24T21:24:02.559Z,18.50
2022-09-24T21:29:02.667Z,17.80
2022-09-24T21:34:02.481Z,17.50
2022-09-24T21:39:02.363Z,17.60
2022-09-24T21:44:02.366Z,18.40
2022-09-24T21:49:02.228Z,18.90
2022-09-24T21:54:02.168Z,16.40
2022-09-24T21:59:02.097Z,17.70
2022-09-24T22:04:02.048Z,18.50
2022-09-24T22:09:02.098Z,19.40
2022-09-24T22:14:01.877Z,19.90
2022-09-24T22:19:01.860Z,17.20
2022-09-24T22:24:01.794Z,24.10
2022-09-24T22:29:01.685Z,22.10
2022-09-24T22:34:01.820Z,22.40
2022-09-24T22:39:01.667Z,22.00
2022-09-24T22:44:01.507Z,22.30
2022-09-24T22:49:01.483Z,22.70
2022-09-24T22:54:01.400Z,25.40
2022-09-24T22:59:01.345Z,24.30
2022-09-24T23:04:01.286Z,24.20
2022-09-24T23:09:01.225Z,24.10
2022-09-24T23:14:01.128Z,24.60
2022-09-24T23:19:01.076Z,24.60
2022-09-24T23:24:01.057Z,26.80
2022-09-24T23:29:01.014Z,23.00
2022-09-24T23:34:00.903Z,18.90
2022-09-24T23:39:01.047Z,22.20
2022-09-24T23:44:00.725Z,23.60
2022-09-24T23:49:00.646Z,22.10
2022-09-24T23:54:00.598Z,18.80
2022-09-24T23:59:00.519Z,20.00
